Fédération internationale de Ski
Member Section
Print

OFFICIAL RESULTS

Wengen (SUI) 10.01.2013

European Cup - Men's European Cup OFFICIAL RESULTS

Race codex : 1297
Valid for FIS Points : YES
Jury
TD FIS COUDER EMMANUEL FRA
Referee M. WALDNER FIS
Assistant Referee C. PERNER AUT
Chief of Race R. LEHMANN SUI
Technical Data
Start Altitude 2315 m.
Finish Altitude 1765 m.
Vertical Drop 550 m.
Course Length 2300 m.
Homologation Number 10159/10/11
Run 1
Course Setter F. HEINZER SUI
Number of Gates 31
Start Time 11:00
Run 2
Course Setter
Number of Gates
Turning Gates
Start Time
 
Show more info»

Competitors

Rank Bib FIS Code Name Year Nation Total Time Diff. FIS Points EC Points
 1  13  511981 WEBER Ralph  1993  SUI   1:31.57     10.00  100
 2  4  511847 MANI Nils  1992  SUI   1:31.73  +0.16  12.39  80
 3  3  511142 LUEOEND Vitus  1984  SUI   1:31.75  +0.18  12.69  60
 4  9  293141 VARETTONI Silvano  1984  ITA   1:31.87  +0.30  14.49  50
 5  10  53936 DUERAGER Markus  1990  AUT   1:31.96  +0.39  15.83  45
 5  6  53980 KRIECHMAYR Vincent  1991  AUT   1:31.96  +0.39  15.83  45
 7  2  422139 KILDE Aleksander Aamodt  1992  NOR   1:32.36  +0.79  21.82  36
 8  30  510747 GRUENENFELDER Tobias  1977  SUI   1:32.62  +1.05  25.71  32
 9  16  54009 WALDER Christian  1991  AUT   1:32.84  +1.27  29.00  29
 10  7  54075 KARELLY Mario  1992  AUT   1:32.87  +1.30  29.45  26
 11  25  194167 MUZATON Maxence  1990  FRA   1:32.88  +1.31  29.60  24
 12  15  53837 KRAMER Manuel  1989  AUT   1:32.90  +1.33  29.90  22
 13  32  511529 GISIN Marc  1988  SUI   1:33.08  +1.51  32.59  20
 14  33  200379 SANDER Andreas  1989  GER   1:33.11  +1.54  33.04  18
 15  34  510890 ZURBRIGGEN Silvan  1981  SUI   1:33.12  +1.55  33.19  16
 16  35  934643 GOLDBERG Jared  1991  USA   1:33.15  +1.58  33.64  15
 17  21  191591 BERTRAND Yannick  1980  FRA   1:33.17  +1.60  33.94  14
 18  31  561217 KOSI Klemen  1991  SLO   1:33.18  +1.61  34.09  13
 19  12  54099 MAYRPETER Thomas  1992  AUT   1:33.19  +1.62  34.24  12
 20  1  501230 ERICSSON Daniel  1987  SWE   1:33.20  +1.63  34.39  11
 21  47  103612 PRIDY Morgan  1990  CAN   1:33.26  +1.69  35.28  10
 22  8  53981 KROELL Johannes  1991  AUT   1:33.28  +1.71  35.58  9
 23  27  194190 ROGER Brice  1990  FRA   1:33.30  +1.73  35.88  8
 24  46  103512 FRISCH Jeffrey  1984  CAN   1:33.40  +1.83  37.38  7
 25  19  511634 SPESCHA Christian  1989  SUI   1:33.58  +2.01  40.07  6
 26  23  481705 GLEBOV Alexander  1983  RUS   1:33.60  +2.03  40.37  5
 26  20  294904 PANGRAZZI Paolo  1988  ITA   1:33.60  +2.03  40.37  5
 28  45  202290 ACKERMANN Marvin  1991  GER   1:33.65  +2.08  41.12  3
 28  40  930024 MAPLE Wiley  1990  USA   1:33.65  +2.08  41.12  3
 30  29  194542 GIRAUD MOINE Valentin  1992  FRA   1:33.76  +2.19  42.77  1
 31  41  54005 STRIEDINGER Otmar  1991  AUT   1:33.79  +2.22  43.21  0
 32  43  511808 SCHMED Fernando  1991  SUI   1:33.86  +2.29  44.26  0
 33  26  561216 KLINE Bostjan  1991  SLO   1:33.89  +2.32  44.71  0
 34  56  220874 BALDWIN TJ  1990  GBR   1:33.90  +2.33  44.86  0
 35  11  202059 FERSTL Josef  1988  GER   1:33.92  +2.35  45.16  0
 36  54  934518 DANIELS Nick  1991  USA   1:33.95  +2.38  45.61  0
 36  42  501439 HEDIN Douglas  1990  SWE   1:33.95  +2.38  45.61  0
 38  18  491129 TERRA Ferran  1987  ESP   1:34.01  +2.44  46.51  0
 39  22  202525 SCHMID Manuel  1993  GER   1:34.20  +2.63  49.35  0
 40  24  54117 HOERL Christopher  1989  AUT   1:34.29  +2.72  50.69  0
 41  37  6530104 BENNETT Bryce  1992  USA   1:34.37  +2.80  51.89  0
 42  64  481054 MURAVYEV Ivan  1989  RUS   1:34.40  +2.83  52.34  0
 43  76  422134 BJERTNESS Endre  1992  NOR   1:34.41  +2.84  52.49  0
 43  58  421650 BJERKESTRAND Iver  1987  NOR   1:34.41  +2.84  52.49  0
 45  80  511988 GENOUD Amaury  1993  SUI   1:34.42  +2.85  52.64  0
 46  61  103676 BROWN Philip  1991  CAN   1:34.56  +2.99  54.73  0
 47  28  194298 GIEZENDANNER Blaise  1991  FRA   1:34.60  +3.03  55.33  0
 48  63  220695 CRAWFORD Douglas  1987  GBR   1:34.61  +3.04  55.48  0
 49  86  512036 PFISTER Marc  1994  SUI   1:34.74  +3.17  57.43  0
 50  85  422073 NETELAND Bjoernar  1991  NOR   1:34.80  +3.23  58.32  0
 51  39  400281 VAN HEEK Marvin  1991  NED   1:34.87  +3.30  59.37  0
 52  53  6290350 RAVELLI Andrea  1992  ITA   1:34.95  +3.38  60.57  0
 53  44  294185 CORTELLA Michele  1987  ITA   1:35.02  +3.45  61.62  0
 54  62  660021 DANILOCHKIN Yuri  1991  BLR   1:35.03  +3.46  61.77  0
 55  74  511768 CAPREZ Nico  1991  SUI   1:35.22  +3.65  64.61  0
 56  66  194650 PICCARD Roy  1993  FRA   1:35.23  +3.66  64.76  0
 57  38  103385 PRIDY Conrad  1988  CAN   1:35.28  +3.71  65.51  0
 58  73  502004 KOELL Alexander  1990  SWE   1:35.30  +3.73  65.81  0
 59  51  990051 BOSCA Giulio  1990  ITA   1:35.41  +3.84  67.45  0
 60  77  202323 LINDEBNER Anton  1991  GER   1:35.60  +4.03  70.29  0
 61  67  6530453 DUPRATT Samuel  1993  USA   1:35.74  +4.17  72.39  0
 62  84  430429 BYDLINSKI Maciej  1988  POL   1:35.75  +4.18  72.54  0
 63  59  194368 RAFFORT Nicolas  1991  FRA   1:35.85  +4.28  74.03  0
 64  87  501898 ROENNGREN Mattias  1993  SWE   1:35.90  +4.33  74.78  0
 64  72  103729 READ Erik  1991  CAN   1:35.90  +4.33  74.78  0
 66  69  194858 ALLEGRE Nils  1994  FRA   1:35.94  +4.37  75.38  0
 67  49  202291 AICHER Lukas  1991  GER   1:35.95  +4.38  75.53  0
 68  60  6290454 HOFER Aaron  1992  ITA   1:35.98  +4.41  75.98  0
 69  79  422120 SAUGESTAD Stian  1992  NOR   1:36.08  +4.51  77.48  0
 70  57  511682 FRAVI Jonas  1990  SUI   1:36.46  +4.89  83.16  0
 71  52  6291029 BATTILANI Henri  1994  ITA   1:36.47  +4.90  83.31  0
 72  78  20324 OLIVERAS Marc  1991  AND   1:36.53  +4.96  84.21  0
 73  71  194852 MABBOUX Jeremy  1994  FRA   1:36.65  +5.08  86.00  0
 74  68  6290065 CODEGA Ivan  1992  ITA   1:36.99  +5.42  91.09  0
 75  36  193560 PASQUIER Alexandre  1987  FRA   1:37.05  +5.48  91.99  0
 76  91  370031 ALESSANDRIA Arnaud  1993  MON   1:37.36  +5.79  96.63  0
 76  70  194666 DELBERGHE William  1993  FRA   1:37.36  +5.79  96.63  0
 78  82  480678 ULYANOV Dmitrij  1983  RUS   1:37.59  +6.02  100.07  0
 78  55  491151 DE LA CUESTA Paul  1988  ESP   1:37.59  +6.02  100.07  0
 80  90  40503 COULL Jackson  1993  AUS   1:38.10  +6.53  107.70  0
 81  88  194847 JORDANIS Robin  1994  FRA   1:38.34  +6.77  111.29  0
 82  89  550022 RODE Roberts  1987  LAT   1:39.17  +7.60  123.71  0
 83  75  481196 BYSTROV Andrey  1991  RUS   1:40.08  +8.51  137.32  0
Did not finish 1st run
   92  511779 HERMANN Sven  1991  SUI         0
   83  512042 KRYENBUEHL Urs  1994  SUI         0
   81  6290393 CAZZANIGA Davide  1992  ITA         0
   65  103762 WERRY Tyler  1991  CAN         0
   50  202196 BRANDNER Klaus  1990  GER         0
   48  54076 KOECK Niklas  1992  AUT         0
   17  53972 DORNER Clemens  1991  AUT         0
   14  53968 BERTHOLD Frederic  1991  AUT         0
   5  54157 DANKLMAIER Daniel  1993  AUT         0